Lorah, Iowa
Current Conditions -  °F | °C
As of 8:55 PM on Tuesday 25 Nov 2014 (Local Time) from KAIO Reporting Station
Overcast Overcast  
Wind Chill: 25°   Ceiling: 6000
Heat Index: 34°   Visibility: 10mi
Dew Point: 19°   Wind: 12mph
Humidity: 56%   Direction: 170°S
Pressure: 29.94"   Gusts: NA
Location:  41.4037°N, 95.0217°W
Report Text: KAIO 260255Z AUTO 17010KT 10SM BKN060 OVC070 01/M07 A2994 RMK AO2
Loading
Personal Weather Stations






























Interactive Weather Map New forecast layout! Learn more

10-Day Weather Forecast

Advertisements
Track Severe Weather on mobile